createdAt,value
2022-11-27T00:01:35.864Z,8.10
2022-11-27T00:04:04.802Z,7.35
2022-11-27T00:06:34.713Z,6.70
2022-11-27T00:09:06.360Z,6.95
2022-11-27T00:11:34.790Z,5.82
2022-11-27T00:14:03.048Z,7.00
2022-11-27T00:16:31.104Z,7.53
2022-11-27T00:18:59.086Z,6.38
2022-11-27T00:21:29.498Z,7.47
2022-11-27T00:23:59.522Z,7.72
2022-11-27T00:26:33.089Z,7.47
2022-11-27T00:29:04.612Z,7.78
2022-11-27T00:31:33.706Z,8.35
2022-11-27T00:34:04.844Z,7.20
2022-11-27T00:36:34.705Z,5.38
2022-11-27T00:39:04.235Z,5.50
2022-11-27T00:41:33.133Z,5.65
2022-11-27T00:44:01.087Z,5.93
2022-11-27T00:46:31.756Z,6.68
2022-11-27T00:49:04.032Z,7.35
2022-11-27T00:51:32.917Z,6.95
2022-11-27T00:54:00.889Z,6.15
2022-11-27T00:56:32.413Z,5.18
2022-11-27T00:59:00.837Z,6.82
2022-11-27T01:01:40.895Z,9.45
2022-11-27T01:04:14.425Z,7.28
2022-11-27T01:06:43.398Z,7.35
2022-11-27T01:09:13.237Z,6.60
2022-11-27T01:11:42.037Z,7.25
2022-11-27T01:14:17.096Z,6.80
2022-11-27T01:16:45.519Z,6.95
2022-11-27T01:19:15.004Z,7.05
2022-11-27T01:21:43.194Z,8.32
2022-11-27T01:24:13.156Z,7.35
2022-11-27T01:26:42.193Z,7.55
2022-11-27T01:29:11.311Z,7.43
2022-11-27T01:31:39.354Z,7.50
2022-11-27T01:34:15.842Z,7.90
2022-11-27T01:36:44.259Z,5.57
2022-11-27T01:39:17.158Z,6.85
2022-11-27T01:41:46.354Z,7.75
2022-11-27T01:44:27.313Z,8.70
2022-11-27T01:47:02.266Z,8.27
2022-11-27T01:49:46.087Z,8.18
2022-11-27T01:54:59.153Z,8.48
2022-11-27T01:57:46.077Z,8.45
2022-11-27T02:00:15.620Z,8.13
2022-11-27T02:02:45.389Z,9.40
2022-11-27T02:05:19.740Z,7.10
2022-11-27T02:07:48.399Z,8.02
2022-11-27T02:10:17.513Z,7.93
2022-11-27T02:13:01.111Z,7.90
2022-11-27T02:18:37.752Z,7.38
2022-11-27T02:21:25.874Z,7.18
2022-11-27T02:24:25.624Z,7.28
2022-11-27T02:27:07.025Z,7.72
2022-11-27T02:29:37.023Z,7.70
2022-11-27T02:32:24.749Z,6.90
2022-11-27T02:35:14.412Z,5.55
2022-11-27T02:37:57.949Z,6.22
2022-11-27T02:40:36.873Z,7.07
2022-11-27T02:43:15.239Z,6.80
2022-11-27T02:45:47.787Z,5.28
2022-11-27T02:48:19.904Z,4.73
2022-11-27T02:50:50.639Z,1.80
2022-11-27T02:53:25.295Z,1.10
2022-11-27T02:55:55.958Z,1.30
2022-11-27T02:58:28.125Z,0.90
2022-11-27T03:00:57.572Z,1.15
2022-11-27T03:03:33.727Z,1.10
2022-11-27T03:06:08.104Z,4.63
2022-11-27T03:08:50.021Z,1.95
2022-11-27T03:11:18.053Z,2.53
2022-11-27T03:13:51.111Z,4.97
2022-11-27T03:16:37.385Z,5.32
2022-11-27T03:19:21.229Z,5.63
2022-11-27T03:22:02.632Z,5.80
2022-11-27T03:24:33.238Z,4.50
2022-11-27T03:27:01.871Z,2.88
2022-11-27T03:29:40.894Z,2.20
2022-11-27T03:32:10.095Z,2.22
2022-11-27T03:34:38.460Z,1.52
2022-11-27T03:37:07.099Z,2.17
2022-11-27T03:39:35.989Z,1.73
2022-11-27T03:42:31.141Z,1.65
2022-11-27T03:45:08.951Z,1.42
2022-11-27T03:47:39.622Z,1.52
2022-11-27T03:50:10.475Z,1.40
2022-11-27T03:53:23.164Z,1.95
2022-11-27T03:56:09.951Z,1.35
2022-11-27T03:58:45.159Z,1.05
2022-11-27T04:01:16.994Z,2.38
2022-11-27T04:03:45.231Z,1.10
2022-11-27T04:06:13.618Z,1.20
2022-11-27T04:08:42.967Z,1.20
2022-11-27T04:11:10.856Z,1.05
2022-11-27T04:13:39.425Z,0.85
2022-11-27T04:16:08.292Z,1.38
2022-11-27T04:18:36.298Z,1.23
2022-11-27T04:21:04.639Z,1.60
2022-11-27T04:23:32.624Z,1.55
2022-11-27T04:26:01.026Z,1.40
2022-11-27T04:28:29.072Z,1.20
2022-11-27T04:30:58.119Z,2.58
2022-11-27T04:33:26.608Z,1.20
2022-11-27T04:35:54.709Z,1.50
2022-11-27T04:38:23.787Z,1.23
2022-11-27T04:40:53.599Z,1.40
2022-11-27T04:43:22.260Z,1.98
2022-11-27T04:45:50.247Z,1.65
2022-11-27T04:48:18.922Z,2.00
2022-11-27T04:50:47.264Z,1.40
2022-11-27T04:53:15.261Z,2.53
2022-11-27T04:55:44.024Z,1.17
2022-11-27T04:58:12.031Z,1.40
2022-11-27T05:00:39.975Z,1.40
2022-11-27T05:03:08.443Z,1.10
2022-11-27T05:05:36.564Z,1.42
2022-11-27T05:08:04.978Z,1.60
2022-11-27T05:10:32.899Z,2.10
2022-11-27T05:13:00.842Z,2.20
2022-11-27T05:15:28.786Z,3.00
2022-11-27T05:17:56.896Z,4.00
2022-11-27T05:20:25.745Z,3.45
2022-11-27T05:22:53.805Z,3.13
2022-11-27T05:25:22.196Z,3.47
2022-11-27T05:27:50.150Z,3.45
2022-11-27T05:30:18.138Z,3.75
2022-11-27T05:32:46.611Z,4.00
2022-11-27T05:35:14.692Z,3.20
2022-11-27T05:37:43.471Z,3.97
2022-11-27T05:40:12.205Z,3.85
2022-11-27T05:42:40.822Z,3.63
2022-11-27T05:45:09.255Z,4.55
2022-11-27T05:47:37.253Z,4.35
2022-11-27T05:50:06.448Z,4.40
2022-11-27T05:52:34.884Z,5.40
2022-11-27T05:55:03.515Z,5.15
2022-11-27T05:57:31.505Z,5.78
2022-11-27T06:00:00.045Z,5.13
2022-11-27T06:02:29.628Z,8.60
2022-11-27T06:04:58.533Z,9.27
2022-11-27T06:07:26.568Z,9.48
2022-11-27T06:09:54.627Z,6.88
2022-11-27T06:12:22.562Z,6.68
2022-11-27T06:14:51.331Z,5.88
2022-11-27T06:17:20.242Z,7.43
2022-11-27T06:19:48.273Z,5.30
2022-11-27T06:22:16.260Z,12.13
2022-11-27T06:24:44.291Z,10.55
2022-11-27T06:27:12.325Z,5.82
2022-11-27T06:29:40.808Z,4.57
2022-11-27T06:32:09.223Z,4.57
2022-11-27T06:34:37.402Z,5.43
2022-11-27T06:37:08.084Z,5.28
2022-11-27T06:39:40.688Z,6.93
2022-11-27T06:42:09.094Z,6.80
2022-11-27T06:44:37.890Z,5.00
2022-11-27T06:47:06.491Z,7.22
2022-11-27T06:49:35.531Z,8.98
2022-11-27T06:52:04.243Z,10.75
2022-11-27T06:54:33.152Z,8.15
2022-11-27T06:57:01.400Z,10.32
2022-11-27T06:59:29.602Z,4.95
2022-11-27T07:01:57.815Z,9.63
2022-11-27T07:04:27.086Z,8.00
2022-11-27T07:06:56.140Z,6.28
2022-11-27T07:09:24.243Z,7.97
2022-11-27T07:11:52.148Z,4.40
2022-11-27T07:14:20.240Z,6.78
2022-11-27T07:16:49.351Z,6.00
2022-11-27T07:19:17.706Z,5.45
2022-11-27T07:21:45.904Z,10.18
2022-11-27T07:24:13.805Z,7.47
2022-11-27T07:26:41.986Z,9.98
2022-11-27T07:29:10.160Z,8.30
2022-11-27T07:31:38.502Z,5.50
2022-11-27T07:34:11.689Z,6.30
2022-11-27T07:36:43.211Z,6.22
2022-11-27T07:39:11.224Z,5.90
2022-11-27T07:41:40.150Z,6.07
2022-11-27T07:44:09.409Z,7.25
2022-11-27T07:46:38.111Z,8.10
2022-11-27T07:49:06.122Z,5.05
2022-11-27T07:51:34.274Z,6.47
2022-11-27T07:54:02.963Z,4.25
2022-11-27T07:56:31.305Z,4.65
2022-11-27T07:58:59.980Z,4.40
2022-11-27T08:01:28.114Z,5.88
2022-11-27T08:03:56.556Z,5.45
2022-11-27T08:06:27.026Z,2.97
2022-11-27T08:08:56.928Z,3.80
2022-11-27T08:11:30.334Z,6.00
2022-11-27T08:14:08.249Z,3.70
2022-11-27T08:16:37.447Z,4.10
2022-11-27T08:19:10.138Z,3.78
2022-11-27T08:21:38.446Z,4.95
2022-11-27T08:24:07.374Z,5.82
2022-11-27T08:26:35.371Z,4.00
2022-11-27T08:29:03.529Z,7.72
2022-11-27T08:31:31.574Z,5.70
2022-11-27T08:33:59.710Z,6.38
2022-11-27T08:36:28.700Z,7.38
2022-11-27T08:38:57.261Z,7.22
2022-11-27T08:41:25.853Z,6.43
2022-11-27T08:43:53.745Z,4.93
2022-11-27T08:46:21.823Z,5.45
2022-11-27T08:48:50.295Z,5.85
2022-11-27T08:51:18.568Z,8.73
2022-11-27T08:53:46.571Z,13.43
2022-11-27T08:56:20.868Z,76.90
2022-11-27T08:58:49.165Z,29.50
2022-11-27T09:01:21.322Z,18.55
2022-11-27T09:03:50.241Z,8.68
2022-11-27T09:06:21.588Z,7.05
2022-11-27T09:08:50.889Z,7.05
2022-11-27T09:11:21.001Z,7.20
2022-11-27T09:13:49.332Z,11.73
2022-11-27T09:16:21.499Z,7.07
2022-11-27T09:18:51.699Z,8.15
2022-11-27T09:21:21.903Z,8.77
2022-11-27T09:23:54.377Z,12.95
2022-11-27T09:26:26.257Z,7.32
2022-11-27T09:28:55.666Z,6.00
2022-11-27T09:31:24.179Z,4.70
2022-11-27T09:33:53.319Z,6.00
2022-11-27T09:36:24.582Z,6.15
2022-11-27T09:38:53.947Z,6.53
2022-11-27T09:41:49.646Z,5.07
2022-11-27T09:44:30.249Z,5.65
2022-11-27T09:47:26.493Z,10.48
2022-11-27T09:50:21.525Z,4.60
2022-11-27T09:53:01.433Z,2.72
2022-11-27T09:55:44.799Z,2.88
2022-11-27T09:58:27.813Z,2.53
2022-11-27T10:00:56.170Z,1.83
2022-11-27T10:03:27.265Z,2.65
2022-11-27T10:06:16.835Z,3.20
2022-11-27T10:08:55.495Z,3.20
2022-11-27T10:11:32.564Z,1.73
2022-11-27T10:14:20.629Z,1.20
2022-11-27T10:17:17.118Z,1.48
2022-11-27T10:20:02.713Z,1.38
2022-11-27T10:22:37.366Z,2.42
2022-11-27T10:25:22.067Z,1.40
2022-11-27T10:28:08.629Z,1.88
2022-11-27T10:30:57.895Z,3.75
2022-11-27T10:33:35.781Z,1.20
2022-11-27T10:36:06.023Z,1.50
2022-11-27T10:38:39.649Z,1.30
2022-11-27T10:41:18.660Z,1.70
2022-11-27T10:44:19.671Z,1.60
2022-11-27T10:46:51.259Z,3.28
2022-11-27T10:49:19.197Z,1.20
2022-11-27T10:51:47.407Z,1.50
2022-11-27T10:54:32.066Z,1.85
2022-11-27T10:57:28.980Z,5.32
2022-11-27T11:00:28.046Z,1.48
2022-11-27T11:03:00.787Z,1.40
2022-11-27T11:05:45.104Z,2.03
2022-11-27T11:08:20.171Z,2.25
2022-11-27T11:11:03.356Z,2.97
2022-11-27T11:13:52.691Z,1.70
2022-11-27T11:16:34.857Z,1.55
2022-11-27T11:19:06.492Z,2.13
2022-11-27T11:21:40.687Z,1.77
2022-11-27T11:24:26.896Z,2.25
2022-11-27T11:27:01.247Z,1.40
2022-11-27T11:29:46.043Z,1.40
2022-11-27T11:32:18.130Z,0.80
2022-11-27T11:34:49.085Z,2.03
2022-11-27T11:37:29.817Z,2.42
2022-11-27T11:40:01.613Z,1.30
2022-11-27T11:42:33.635Z,1.83
2022-11-27T11:45:11.292Z,0.80
2022-11-27T11:48:20.510Z,0.82
2022-11-27T11:51:08.186Z,1.45
2022-11-27T11:53:42.367Z,1.30
2022-11-27T11:56:32.157Z,2.80
2022-11-27T11:59:17.245Z,2.75
2022-11-27T12:01:54.697Z,2.67
2022-11-27T12:04:41.710Z,4.00
2022-11-27T12:07:28.301Z,2.50
2022-11-27T12:10:06.066Z,1.67
2022-11-27T12:13:00.126Z,11.60
2022-11-27T12:16:03.570Z,9.93
2022-11-27T12:18:37.573Z,2.65
2022-11-27T12:21:15.267Z,1.58
2022-11-27T12:23:50.562Z,1.40
2022-11-27T12:26:32.240Z,1.00
2022-11-27T12:29:29.809Z,1.80
2022-11-27T12:32:28.605Z,1.83
2022-11-27T12:35:23.415Z,1.38
2022-11-27T12:38:16.525Z,1.50
2022-11-27T12:41:05.744Z,1.48
2022-11-27T12:43:39.067Z,0.95
2022-11-27T12:49:41.069Z,2.22
2022-11-27T12:52:19.353Z,1.67
2022-11-27T12:54:58.971Z,2.13
2022-11-27T12:57:49.887Z,1.30
2022-11-27T13:00:24.253Z,1.63
2022-11-27T13:03:10.927Z,1.90
2022-11-27T13:05:51.972Z,1.80
2022-11-27T13:08:47.150Z,2.05
2022-11-27T13:11:20.493Z,1.30
2022-11-27T13:13:56.330Z,1.60
2022-11-27T13:16:45.802Z,2.03
2022-11-27T13:19:28.668Z,2.05
2022-11-27T13:21:57.596Z,1.70
2022-11-27T13:24:28.449Z,1.60
2022-11-27T13:27:08.462Z,1.27
2022-11-27T13:29:47.701Z,1.95
2022-11-27T13:32:22.777Z,1.90
2022-11-27T13:34:52.371Z,2.75
2022-11-27T13:37:29.545Z,1.98
2022-11-27T13:40:06.028Z,2.13
2022-11-27T13:42:36.833Z,2.15
2022-11-27T13:45:12.778Z,4.32
2022-11-27T13:47:43.430Z,2.25
2022-11-27T13:50:14.971Z,3.08
2022-11-27T13:52:59.874Z,1.45
2022-11-27T13:55:31.182Z,1.67
2022-11-27T13:58:02.836Z,1.77
2022-11-27T14:00:43.985Z,1.80
2022-11-27T14:03:27.846Z,1.88
2022-11-27T14:05:57.209Z,1.95
2022-11-27T14:08:34.883Z,1.25
2022-11-27T14:11:13.281Z,2.63
2022-11-27T14:13:42.856Z,1.60
2022-11-27T14:16:30.573Z,1.23
2022-11-27T14:19:23.000Z,1.60
2022-11-27T14:21:52.277Z,2.70
2022-11-27T14:24:24.287Z,2.25
2022-11-27T14:26:54.061Z,3.60
2022-11-27T14:29:23.782Z,2.80
2022-11-27T14:32:02.433Z,3.05
2022-11-27T14:34:35.146Z,2.15
2022-11-27T14:37:03.118Z,1.20
2022-11-27T14:39:36.147Z,1.30
2022-11-27T14:42:18.977Z,1.65
2022-11-27T14:44:48.187Z,1.95
2022-11-27T14:47:22.871Z,2.88
2022-11-27T14:49:56.220Z,2.45
2022-11-27T14:52:24.923Z,2.20
2022-11-27T14:54:55.885Z,1.95
2022-11-27T14:57:29.056Z,1.85
2022-11-27T15:00:17.332Z,1.60
2022-11-27T15:02:49.909Z,1.90
2022-11-27T15:05:27.543Z,1.80
2022-11-27T15:07:58.577Z,2.70
2022-11-27T15:10:37.329Z,2.10
2022-11-27T15:13:08.978Z,2.67
2022-11-27T15:15:42.301Z,4.05
2022-11-27T15:18:21.895Z,4.07
2022-11-27T15:20:51.700Z,8.02
2022-11-27T15:23:28.536Z,9.18
2022-11-27T15:26:00.957Z,7.47
2022-11-27T15:28:36.131Z,7.13
2022-11-27T15:31:22.900Z,11.30
2022-11-27T15:34:02.693Z,16.95
2022-11-27T15:36:39.680Z,11.73
2022-11-27T15:39:19.403Z,6.53
2022-11-27T15:41:56.796Z,12.02
2022-11-27T15:44:26.170Z,11.00
2022-11-27T15:46:56.040Z,12.25
2022-11-27T15:49:24.442Z,11.23
2022-11-27T15:52:17.916Z,13.63
2022-11-27T15:54:46.222Z,18.35
2022-11-27T15:57:14.436Z,15.18
2022-11-27T15:59:42.575Z,15.77
2022-11-27T16:02:17.295Z,16.38
2022-11-27T16:04:45.819Z,12.80
2022-11-27T16:07:13.833Z,14.63
2022-11-27T16:09:42.021Z,13.15
2022-11-27T16:12:10.487Z,12.80
2022-11-27T16:14:38.920Z,12.63
2022-11-27T16:17:08.038Z,12.63
2022-11-27T16:19:36.060Z,11.63
2022-11-27T16:22:04.242Z,10.40
2022-11-27T16:24:32.241Z,14.30
2022-11-27T16:27:00.207Z,13.65
2022-11-27T16:29:28.227Z,13.18
2022-11-27T16:31:57.083Z,9.13
2022-11-27T16:34:25.506Z,8.50
2022-11-27T16:36:53.922Z,13.50
2022-11-27T16:39:21.979Z,14.90
2022-11-27T16:41:50.161Z,11.40
2022-11-27T16:44:19.588Z,12.75
2022-11-27T16:46:47.695Z,9.35
2022-11-27T16:49:16.261Z,6.57
2022-11-27T16:51:45.306Z,5.78
2022-11-27T16:54:14.622Z,5.85
2022-11-27T16:56:44.345Z,6.28
2022-11-27T16:59:14.388Z,7.03
2022-11-27T17:01:43.755Z,6.10
2022-11-27T17:04:18.639Z,6.47
2022-11-27T17:06:48.867Z,5.55
2022-11-27T17:09:17.160Z,5.90
2022-11-27T17:11:50.456Z,9.65
2022-11-27T17:14:20.591Z,8.63
2022-11-27T17:16:50.015Z,10.35
2022-11-27T17:19:19.314Z,9.77
2022-11-27T17:21:47.753Z,6.72
2022-11-27T17:24:16.772Z,6.20
2022-11-27T17:26:47.411Z,7.03
2022-11-27T17:29:18.378Z,7.72
2022-11-27T17:31:47.079Z,16.88
2022-11-27T17:34:17.569Z,22.98
2022-11-27T17:36:46.925Z,23.88
2022-11-27T17:39:15.711Z,18.92
2022-11-27T17:41:45.475Z,16.23
2022-11-27T17:44:14.482Z,14.45
2022-11-27T17:46:48.200Z,12.45
2022-11-27T17:49:16.585Z,16.33
2022-11-27T17:51:45.992Z,11.68
2022-11-27T17:54:15.705Z,10.65
2022-11-27T17:56:45.073Z,11.32
2022-11-27T17:59:13.789Z,12.48
2022-11-27T18:01:41.998Z,18.52
2022-11-27T18:04:10.683Z,14.73
2022-11-27T18:06:40.456Z,15.70
2022-11-27T18:09:10.167Z,19.20
2022-11-27T18:11:39.663Z,19.30
2022-11-27T18:14:07.668Z,17.48
2022-11-27T18:16:38.677Z,19.70
2022-11-27T18:19:32.354Z,17.10
2022-11-27T18:22:00.452Z,19.08
2022-11-27T18:24:28.517Z,20.42
2022-11-27T18:27:12.079Z,22.00
2022-11-27T18:32:11.949Z,18.88
2022-11-27T18:34:40.838Z,18.65
2022-11-27T18:37:09.435Z,17.60
2022-11-27T18:39:38.658Z,19.73
2022-11-27T18:42:07.806Z,24.83
2022-11-27T18:44:44.272Z,38.78
2022-11-27T18:47:16.773Z,38.40
2022-11-27T18:49:47.914Z,24.55
2022-11-27T18:52:16.817Z,26.08
2022-11-27T18:54:45.084Z,29.23
2022-11-27T18:57:13.913Z,29.05
2022-11-27T18:59:44.491Z,30.60
2022-11-27T19:02:13.638Z,42.45
2022-11-27T19:04:44.336Z,40.33
2022-11-27T19:07:12.905Z,44.55
2022-11-27T19:09:41.198Z,41.28
2022-11-27T19:12:09.413Z,35.85
2022-11-27T19:14:38.145Z,31.58
2022-11-27T19:17:06.508Z,47.35
2022-11-27T19:22:25.393Z,63.78
2022-11-27T19:24:57.113Z,67.57
2022-11-27T19:27:25.065Z,66.65
2022-11-27T19:29:53.695Z,63.28
2022-11-27T19:32:22.093Z,61.88
2022-11-27T19:34:51.078Z,60.08
2022-11-27T19:37:33.429Z,60.67
2022-11-27T19:40:01.904Z,62.87
2022-11-27T19:42:32.108Z,60.92
2022-11-27T19:45:00.187Z,57.95
2022-11-27T19:47:29.092Z,59.42
2022-11-27T19:49:57.485Z,63.42
2022-11-27T19:52:26.514Z,65.90
2022-11-27T19:54:55.262Z,64.05
2022-11-27T19:57:24.381Z,48.47
2022-11-27T19:59:52.337Z,38.67
2022-11-27T20:02:20.863Z,37.13
2022-11-27T20:04:49.209Z,39.70
2022-11-27T20:07:17.278Z,45.70
2022-11-27T20:09:46.119Z,46.83
2022-11-27T20:12:14.661Z,49.08
2022-11-27T20:14:43.948Z,46.97
2022-11-27T20:17:12.832Z,44.65
2022-11-27T20:19:41.422Z,44.05
2022-11-27T20:22:10.391Z,42.35
2022-11-27T20:24:52.970Z,45.78
2022-11-27T20:27:28.661Z,46.33
2022-11-27T20:29:56.670Z,42.40
2022-11-27T20:32:25.339Z,39.13
2022-11-27T20:34:54.528Z,35.80
2022-11-27T20:37:24.614Z,36.58
2022-11-27T20:39:55.333Z,34.25
2022-11-27T20:42:24.524Z,30.00
2022-11-27T20:44:53.607Z,32.97
2022-11-27T20:47:21.683Z,35.45
2022-11-27T20:49:49.780Z,36.67
2022-11-27T20:52:19.078Z,40.58
2022-11-27T20:54:47.158Z,38.83
2022-11-27T20:57:15.095Z,34.72
2022-11-27T20:59:44.449Z,33.38
2022-11-27T21:02:13.353Z,38.92
2022-11-27T21:04:41.888Z,39.35
2022-11-27T21:07:11.004Z,40.85
2022-11-27T21:09:39.586Z,49.75
2022-11-27T21:12:08.604Z,49.85
2022-11-27T21:14:36.552Z,55.65
2022-11-27T21:17:05.460Z,61.15
2022-11-27T21:19:35.663Z,58.78
2022-11-27T21:22:04.275Z,51.75
2022-11-27T21:24:32.775Z,52.80
2022-11-27T21:27:01.211Z,68.55
2022-11-27T21:29:29.357Z,73.82
2022-11-27T21:31:57.762Z,69.20
2022-11-27T21:34:25.909Z,59.78
2022-11-27T21:36:54.468Z,64.43
2022-11-27T21:39:25.623Z,66.88
2022-11-27T21:41:55.596Z,64.90
2022-11-27T21:44:25.697Z,74.90
2022-11-27T21:46:54.153Z,77.13
2022-11-27T21:49:22.425Z,76.55
2022-11-27T21:51:54.534Z,72.05
2022-11-27T21:54:30.506Z,68.13
2022-11-27T21:56:58.594Z,69.40
2022-11-27T21:59:27.921Z,55.22
2022-11-27T22:01:57.445Z,18.98
2022-11-27T22:04:26.391Z,51.63
2022-11-27T22:06:54.831Z,33.80
2022-11-27T22:09:23.044Z,59.90
2022-11-27T22:11:52.872Z,64.13
2022-11-27T22:14:21.065Z,58.22
2022-11-27T22:16:49.504Z,69.88
2022-11-27T22:19:18.383Z,55.63
2022-11-27T22:21:47.540Z,49.15
2022-11-27T22:24:19.350Z,61.13
2022-11-27T22:26:52.607Z,57.40
2022-11-27T22:29:21.023Z,51.53
2022-11-27T22:31:49.660Z,49.05
2022-11-27T22:34:18.261Z,50.13
2022-11-27T22:36:46.784Z,51.53
2022-11-27T22:39:15.424Z,32.83
2022-11-27T22:41:45.291Z,31.80
2022-11-27T22:44:18.510Z,25.48
2022-11-27T22:46:47.890Z,27.38
2022-11-27T22:49:18.751Z,19.13
2022-11-27T22:51:47.645Z,14.68
2022-11-27T22:54:17.841Z,10.82
2022-11-27T22:56:47.036Z,10.70
2022-11-27T22:59:33.743Z,28.65
2022-11-27T23:02:03.888Z,9.57
2022-11-27T23:04:33.492Z,9.38
2022-11-27T23:07:01.938Z,9.68
2022-11-27T23:09:30.932Z,9.63
2022-11-27T23:11:59.495Z,8.90
2022-11-27T23:14:28.308Z,8.65
2022-11-27T23:16:57.015Z,10.52
2022-11-27T23:19:25.637Z,10.88
2022-11-27T23:21:53.841Z,19.33
2022-11-27T23:24:21.983Z,26.05
2022-11-27T23:26:50.952Z,26.55
2022-11-27T23:29:44.658Z,22.80
2022-11-27T23:32:12.822Z,19.95
2022-11-27T23:34:41.432Z,12.95
2022-11-27T23:37:09.770Z,9.07
2022-11-27T23:39:37.904Z,8.90
2022-11-27T23:42:06.426Z,9.38
2022-11-27T23:44:34.482Z,10.38
2022-11-27T23:47:02.844Z,11.27
2022-11-27T23:49:30.703Z,12.38
2022-11-27T23:51:58.955Z,12.50
2022-11-27T23:54:27.350Z,18.20
2022-11-27T23:56:56.494Z,16.40
2022-11-27T23:59:24.868Z,14.68
